sensor_id;sensor_type;location;lat;lon;timestamp;pressure;altitude;pressure_sealevel;temperature;humidity
78431;BME280;67727;50.236;22.452;2024-01-11T00:00:30;100745.06;;;-8.57;74.05
78431;BME280;67727;50.236;22.452;2024-01-11T00:03:17;100746.02;;;-8.54;73.77
78431;BME280;67727;50.236;22.452;2024-01-11T00:05:44;100742.44;;;-8.54;73.76
78431;BME280;67727;50.236;22.452;2024-01-11T00:08:11;100747.77;;;-8.55;73.59
78431;BME280;67727;50.236;22.452;2024-01-11T00:10:38;100743.35;;;-8.56;73.33
78431;BME280;67727;50.236;22.452;2024-01-11T00:13:06;100734.63;;;-8.57;73.36
78431;BME280;67727;50.236;22.452;2024-01-11T00:15:33;100731.84;;;-8.56;73.19
78431;BME280;67727;50.236;22.452;2024-01-11T00:17:59;100730.10;;;-8.54;73.06
78431;BME280;67727;50.236;22.452;2024-01-11T00:20:26;100734.37;;;-8.53;72.90
78431;BME280;67727;50.236;22.452;2024-01-11T00:22:53;100726.80;;;-8.51;72.89
78431;BME280;67727;50.236;22.452;2024-01-11T00:25:20;100717.35;;;-8.50;72.77
78431;BME280;67727;50.236;22.452;2024-01-11T00:27:47;100712.36;;;-8.49;72.50
78431;BME280;67727;50.236;22.452;2024-01-11T00:30:14;100712.16;;;-8.48;72.44
78431;BME280;67727;50.236;22.452;2024-01-11T00:32:41;100708.69;;;-8.45;72.55
78431;BME280;67727;50.236;22.452;2024-01-11T00:35:08;100701.63;;;-8.43;72.33
78431;BME280;67727;50.236;22.452;2024-01-11T00:37:34;100693.71;;;-8.42;72.22
78431;BME280;67727;50.236;22.452;2024-01-11T00:40:01;100689.89;;;-8.40;72.18
78431;BME280;67727;50.236;22.452;2024-01-11T00:42:28;100692.57;;;-8.37;72.12
78431;BME280;67727;50.236;22.452;2024-01-11T00:44:55;100693.46;;;-8.33;72.14
78431;BME280;67727;50.236;22.452;2024-01-11T00:47:22;100688.10;;;-8.30;71.93
78431;BME280;67727;50.236;22.452;2024-01-11T00:49:49;100684.73;;;-8.25;71.97
78431;BME280;67727;50.236;22.452;2024-01-11T00:52:16;100678.50;;;-8.22;71.92
78431;BME280;67727;50.236;22.452;2024-01-11T00:54:42;100677.71;;;-8.18;71.82
78431;BME280;67727;50.236;22.452;2024-01-11T00:57:09;100674.88;;;-8.14;71.76
78431;BME280;67727;50.236;22.452;2024-01-11T00:59:36;100673.77;;;-8.10;71.56
78431;BME280;67727;50.236;22.452;2024-01-11T01:02:03;100669.41;;;-8.07;71.73
78431;BME280;67727;50.236;22.452;2024-01-11T01:04:30;100666.27;;;-8.05;71.61
78431;BME280;67727;50.236;22.452;2024-01-11T01:06:57;100665.22;;;-8.04;71.54
78431;BME280;67727;50.236;22.452;2024-01-11T01:09:24;100665.20;;;-8.03;71.64
78431;BME280;67727;50.236;22.452;2024-01-11T01:11:51;100662.27;;;-8.02;71.74
78431;BME280;67727;50.236;22.452;2024-01-11T01:14:18;100659.66;;;-8.01;71.87
78431;BME280;67727;50.236;22.452;2024-01-11T01:16:45;100656.88;;;-7.99;71.98
78431;BME280;67727;50.236;22.452;2024-01-11T01:19:11;100654.79;;;-7.98;72.26
78431;BME280;67727;50.236;22.452;2024-01-11T01:21:38;100655.27;;;-7.96;72.23
78431;BME280;67727;50.236;22.452;2024-01-11T01:24:05;100650.27;;;-7.96;72.36
78431;BME280;67727;50.236;22.452;2024-01-11T01:26:32;100647.67;;;-7.94;72.54
78431;BME280;67727;50.236;22.452;2024-01-11T01:29:00;100648.30;;;-7.92;72.51
78431;BME280;67727;50.236;22.452;2024-01-11T01:31:27;100651.52;;;-7.89;72.54
78431;BME280;67727;50.236;22.452;2024-01-11T01:33:55;100650.24;;;-7.87;72.63
78431;BME280;67727;50.236;22.452;2024-01-11T01:36:21;100645.37;;;-7.83;72.67
78431;BME280;67727;50.236;22.452;2024-01-11T01:38:48;100639.80;;;-7.81;72.55
78431;BME280;67727;50.236;22.452;2024-01-11T01:41:15;100639.73;;;-7.77;72.49
78431;BME280;67727;50.236;22.452;2024-01-11T01:43:42;100638.26;;;-7.74;72.42
78431;BME280;67727;50.236;22.452;2024-01-11T01:46:09;100653.29;;;-7.71;72.50
78431;BME280;67727;50.236;22.452;2024-01-11T01:48:36;100660.09;;;-7.69;72.39
78431;BME280;67727;50.236;22.452;2024-01-11T01:51:04;100661.58;;;-7.67;72.18
78431;BME280;67727;50.236;22.452;2024-01-11T01:53:32;100664.11;;;-7.64;72.26
78431;BME280;67727;50.236;22.452;2024-01-11T01:55:59;100657.02;;;-7.63;72.22
78431;BME280;67727;50.236;22.452;2024-01-11T01:58:26;100655.38;;;-7.59;72.25
78431;BME280;67727;50.236;22.452;2024-01-11T02:00:53;100656.83;;;-7.55;72.05
78431;BME280;67727;50.236;22.452;2024-01-11T02:03:20;100653.84;;;-7.52;72.05
78431;BME280;67727;50.236;22.452;2024-01-11T02:05:47;100644.75;;;-7.52;71.76
78431;BME280;67727;50.236;22.452;2024-01-11T02:08:16;100645.61;;;-7.53;71.74
78431;BME280;67727;50.236;22.452;2024-01-11T02:10:46;100643.75;;;-7.54;72.00
78431;BME280;67727;50.236;22.452;2024-01-11T02:13:13;100634.98;;;-7.54;71.80
78431;BME280;67727;50.236;22.452;2024-01-11T02:15:40;100625.89;;;-7.52;71.96
78431;BME280;67727;50.236;22.452;2024-01-11T02:18:07;100620.73;;;-7.52;71.90
78431;BME280;67727;50.236;22.452;2024-01-11T02:20:34;100611.09;;;-7.51;72.07
78431;BME280;67727;50.236;22.452;2024-01-11T02:23:06;100603.66;;;-7.50;72.09
78431;BME280;67727;50.236;22.452;2024-01-11T02:25:35;100597.14;;;-7.50;72.07
78431;BME280;67727;50.236;22.452;2024-01-11T02:28:01;100592.85;;;-7.50;72.02
78431;BME280;67727;50.236;22.452;2024-01-11T02:30:28;100598.52;;;-7.50;72.17
78431;BME280;67727;50.236;22.452;2024-01-11T02:32:56;100597.48;;;-7.50;72.38
78431;BME280;67727;50.236;22.452;2024-01-11T02:35:24;100599.71;;;-7.50;72.50
78431;BME280;67727;50.236;22.452;2024-01-11T02:37:51;100597.13;;;-7.49;72.65
78431;BME280;67727;50.236;22.452;2024-01-11T02:40:19;100590.43;;;-7.49;72.63
78431;BME280;67727;50.236;22.452;2024-01-11T02:42:45;100586.34;;;-7.50;72.49
78431;BME280;67727;50.236;22.452;2024-01-11T02:45:12;100574.66;;;-7.50;72.63
78431;BME280;67727;50.236;22.452;2024-01-11T02:47:39;100577.67;;;-7.48;72.72
78431;BME280;67727;50.236;22.452;2024-01-11T02:50:06;100578.34;;;-7.46;72.70
78431;BME280;67727;50.236;22.452;2024-01-11T02:52:34;100577.59;;;-7.44;72.62
78431;BME280;67727;50.236;22.452;2024-01-11T02:55:01;100572.88;;;-7.42;72.59
78431;BME280;67727;50.236;22.452;2024-01-11T02:57:28;100566.14;;;-7.39;72.60
78431;BME280;67727;50.236;22.452;2024-01-11T02:59:54;100561.80;;;-7.37;72.44
78431;BME280;67727;50.236;22.452;2024-01-11T03:02:21;100560.04;;;-7.36;72.52
78431;BME280;67727;50.236;22.452;2024-01-11T03:04:49;100559.13;;;-7.34;72.45
78431;BME280;67727;50.236;22.452;2024-01-11T03:07:15;100546.91;;;-7.33;72.50
78431;BME280;67727;50.236;22.452;2024-01-11T03:09:42;100545.86;;;-7.32;72.29
78431;BME280;67727;50.236;22.452;2024-01-11T03:12:09;100547.77;;;-7.33;72.43
78431;BME280;67727;50.236;22.452;2024-01-11T03:14:36;100549.11;;;-7.31;72.45
78431;BME280;67727;50.236;22.452;2024-01-11T03:17:03;100535.75;;;-7.32;72.42
78431;BME280;67727;50.236;22.452;2024-01-11T03:19:31;100536.27;;;-7.32;72.31
78431;BME280;67727;50.236;22.452;2024-01-11T03:21:58;100530.77;;;-7.32;72.42
78431;BME280;67727;50.236;22.452;2024-01-11T03:24:25;100523.73;;;-7.33;72.41
78431;BME280;67727;50.236;22.452;2024-01-11T03:26:51;100517.38;;;-7.32;72.69
78431;BME280;67727;50.236;22.452;2024-01-11T03:29:18;100508.77;;;-7.31;72.82
78431;BME280;67727;50.236;22.452;2024-01-11T03:31:45;100511.55;;;-7.27;73.07
78431;BME280;67727;50.236;22.452;2024-01-11T03:34:12;100521.58;;;-7.23;73.05
78431;BME280;67727;50.236;22.452;2024-01-11T03:36:39;100522.31;;;-7.19;73.22
78431;BME280;67727;50.236;22.452;2024-01-11T03:39:06;100529.52;;;-7.13;73.26
78431;BME280;67727;50.236;22.452;2024-01-11T03:41:33;100531.89;;;-7.06;73.34
78431;BME280;67727;50.236;22.452;2024-01-11T03:44:00;100530.80;;;-6.99;73.22
78431;BME280;67727;50.236;22.452;2024-01-11T03:46:27;100523.39;;;-6.92;73.28
78431;BME280;67727;50.236;22.452;2024-01-11T03:48:54;100519.02;;;-6.83;73.03
78431;BME280;67727;50.236;22.452;2024-01-11T03:51:22;100514.14;;;-6.76;72.93
78431;BME280;67727;50.236;22.452;2024-01-11T03:53:49;100512.04;;;-6.69;72.75
78431;BME280;67727;50.236;22.452;2024-01-11T03:56:16;100499.30;;;-6.63;72.67
78431;BME280;67727;50.236;22.452;2024-01-11T03:58:43;100491.20;;;-6.57;72.65
78431;BME280;67727;50.236;22.452;2024-01-11T04:01:11;100482.14;;;-6.53;72.53
78431;BME280;67727;50.236;22.452;2024-01-11T04:03:38;100472.38;;;-6.49;72.34
78431;BME280;67727;50.236;22.452;2024-01-11T04:06:05;100461.26;;;-6.45;72.33
78431;BME280;67727;50.236;22.452;2024-01-11T04:08:32;100457.89;;;-6.42;71.94
78431;BME280;67727;50.236;22.452;2024-01-11T04:11:02;100453.27;;;-6.38;72.01
78431;BME280;67727;50.236;22.452;2024-01-11T04:13:30;100454.35;;;-6.34;71.85
78431;BME280;67727;50.236;22.452;2024-01-11T04:15:57;100453.67;;;-6.29;71.85
78431;BME280;67727;50.236;22.452;2024-01-11T04:18:24;100457.69;;;-6.25;71.77
78431;BME280;67727;50.236;22.452;2024-01-11T04:20:51;100452.92;;;-6.22;71.58
78431;BME280;67727;50.236;22.452;2024-01-11T04:23:18;100441.16;;;-6.20;71.56
78431;BME280;67727;50.236;22.452;2024-01-11T04:25:45;100441.77;;;-6.17;71.46
78431;BME280;67727;50.236;22.452;2024-01-11T04:28:12;100442.19;;;-6.15;71.12
78431;BME280;67727;50.236;22.452;2024-01-11T04:30:39;100442.43;;;-6.12;71.32
78431;BME280;67727;50.236;22.452;2024-01-11T04:33:06;100441.64;;;-6.09;70.90
78431;BME280;67727;50.236;22.452;2024-01-11T04:35:32;100452.38;;;-6.06;71.19
78431;BME280;67727;50.236;22.452;2024-01-11T04:37:59;100453.45;;;-6.03;70.90
78431;BME280;67727;50.236;22.452;2024-01-11T04:40:26;100447.99;;;-5.99;70.77
78431;BME280;67727;50.236;22.452;2024-01-11T04:42:53;100440.83;;;-5.96;70.61
78431;BME280;67727;50.236;22.452;2024-01-11T04:45:20;100433.66;;;-5.92;70.62
78431;BME280;67727;50.236;22.452;2024-01-11T04:47:50;100431.31;;;-5.90;70.18
78431;BME280;67727;50.236;22.452;2024-01-11T04:50:18;100424.33;;;-5.87;69.91
78431;BME280;67727;50.236;22.452;2024-01-11T04:52:45;100416.99;;;-5.84;69.83
78431;BME280;67727;50.236;22.452;2024-01-11T04:55:12;100415.14;;;-5.81;69.38
78431;BME280;67727;50.236;22.452;2024-01-11T04:57:39;100415.67;;;-5.77;69.16
78431;BME280;67727;50.236;22.452;2024-01-11T05:00:06;100406.11;;;-5.74;69.14
78431;BME280;67727;50.236;22.452;2024-01-11T05:02:33;100397.57;;;-5.70;68.64
78431;BME280;67727;50.236;22.452;2024-01-11T05:05:00;100396.61;;;-5.68;68.54
78431;BME280;67727;50.236;22.452;2024-01-11T05:07:27;100390.67;;;-5.66;68.39
78431;BME280;67727;50.236;22.452;2024-01-11T05:09:54;100393.13;;;-5.62;68.30
78431;BME280;67727;50.236;22.452;2024-01-11T05:12:21;100395.75;;;-5.59;68.08
78431;BME280;67727;50.236;22.452;2024-01-11T05:14:48;100399.06;;;-5.56;67.91
78431;BME280;67727;50.236;22.452;2024-01-11T05:17:15;100402.59;;;-5.53;67.77
78431;BME280;67727;50.236;22.452;2024-01-11T05:19:42;100402.76;;;-5.49;67.79
78431;BME280;67727;50.236;22.452;2024-01-11T05:22:09;100409.72;;;-5.46;68.10
78431;BME280;67727;50.236;22.452;2024-01-11T05:24:36;100401.68;;;-5.43;68.02
78431;BME280;67727;50.236;22.452;2024-01-11T05:27:03;100395.52;;;-5.39;67.67
78431;BME280;67727;50.236;22.452;2024-01-11T05:29:30;100401.90;;;-5.36;67.66
78431;BME280;67727;50.236;22.452;2024-01-11T05:31:56;100403.17;;;-5.32;68.27
78431;BME280;67727;50.236;22.452;2024-01-11T05:34:24;100391.18;;;-5.30;67.89
78431;BME280;67727;50.236;22.452;2024-01-11T05:36:50;100383.16;;;-5.27;67.81
78431;BME280;67727;50.236;22.452;2024-01-11T05:39:17;100382.35;;;-5.24;67.65
78431;BME280;67727;50.236;22.452;2024-01-11T05:41:45;100374.83;;;-5.21;67.69
78431;BME280;67727;50.236;22.452;2024-01-11T05:44:12;100367.67;;;-5.18;68.07
78431;BME280;67727;50.236;22.452;2024-01-11T05:46:39;100359.45;;;-5.16;68.04
78431;BME280;67727;50.236;22.452;2024-01-11T05:49:06;100351.33;;;-5.14;68.13
78431;BME280;67727;50.236;22.452;2024-01-11T05:51:32;100345.36;;;-5.12;67.88
78431;BME280;67727;50.236;22.452;2024-01-11T05:53:59;100334.97;;;-5.11;67.75
78431;BME280;67727;50.236;22.452;2024-01-11T05:56:26;100330.27;;;-5.09;67.37
78431;BME280;67727;50.236;22.452;2024-01-11T05:58:53;100324.02;;;-5.08;67.23
78431;BME280;67727;50.236;22.452;2024-01-11T06:01:20;100311.70;;;-5.06;67.32
78431;BME280;67727;50.236;22.452;2024-01-11T06:03:48;100300.84;;;-5.06;66.90
78431;BME280;67727;50.236;22.452;2024-01-11T06:06:15;100303.19;;;-5.04;66.71
78431;BME280;67727;50.236;22.452;2024-01-11T06:08:41;100301.70;;;-5.01;66.81
78431;BME280;67727;50.236;22.452;2024-01-11T06:11:10;100292.14;;;-5.00;66.77
78431;BME280;67727;50.236;22.452;2024-01-11T06:13:40;100287.40;;;-4.98;66.63
78431;BME280;67727;50.236;22.452;2024-01-11T06:16:07;100292.66;;;-4.96;66.66
78431;BME280;67727;50.236;22.452;2024-01-11T06:18:34;100296.20;;;-4.94;66.55
78431;BME280;67727;50.236;22.452;2024-01-11T06:21:01;100291.27;;;-4.91;66.67
78431;BME280;67727;50.236;22.452;2024-01-11T06:23:28;100294.11;;;-4.89;66.19
78431;BME280;67727;50.236;22.452;2024-01-11T06:25:55;100306.80;;;-4.87;66.51
78431;BME280;67727;50.236;22.452;2024-01-11T06:28:22;100303.60;;;-4.85;66.23
78431;BME280;67727;50.236;22.452;2024-01-11T06:30:49;100297.26;;;-4.82;66.08
78431;BME280;67727;50.236;22.452;2024-01-11T06:33:16;100303.13;;;-4.78;66.37
78431;BME280;67727;50.236;22.452;2024-01-11T06:35:43;100293.35;;;-4.75;65.93
78431;BME280;67727;50.236;22.452;2024-01-11T06:38:10;100294.59;;;-4.72;66.19
78431;BME280;67727;50.236;22.452;2024-01-11T06:40:37;100286.05;;;-4.70;65.86
78431;BME280;67727;50.236;22.452;2024-01-11T06:43:04;100292.48;;;-4.67;65.73
78431;BME280;67727;50.236;22.452;2024-01-11T06:45:30;100292.35;;;-4.64;65.98
78431;BME280;67727;50.236;22.452;2024-01-11T06:47:57;100298.36;;;-4.59;65.54
78431;BME280;67727;50.236;22.452;2024-01-11T06:50:24;100302.95;;;-4.54;65.09
78431;BME280;67727;50.236;22.452;2024-01-11T06:52:51;100299.40;;;-4.47;65.11
78431;BME280;67727;50.236;22.452;2024-01-11T06:55:18;100285.86;;;-4.42;65.09
78431;BME280;67727;50.236;22.452;2024-01-11T06:57:47;100275.48;;;-4.37;64.85
78431;BME280;67727;50.236;22.452;2024-01-11T07:00:17;100267.88;;;-4.33;65.07
78431;BME280;67727;50.236;22.452;2024-01-11T07:02:44;100258.03;;;-4.28;65.20
78431;BME280;67727;50.236;22.452;2024-01-11T07:05:11;100259.36;;;-4.24;64.37
78431;BME280;67727;50.236;22.452;2024-01-11T07:07:39;100266.39;;;-4.19;64.30
78431;BME280;67727;50.236;22.452;2024-01-11T07:10:06;100270.30;;;-4.14;64.05
78431;BME280;67727;50.236;22.452;2024-01-11T07:12:33;100274.17;;;-4.08;63.95
78431;BME280;67727;50.236;22.452;2024-01-11T07:15:00;100278.17;;;-4.01;63.76
78431;BME280;67727;50.236;22.452;2024-01-11T07:17:27;100280.77;;;-3.94;62.52
78431;BME280;67727;50.236;22.452;2024-01-11T07:19:53;100287.02;;;-3.87;62.95
78431;BME280;67727;50.236;22.452;2024-01-11T07:22:20;100286.52;;;-3.80;62.73
78431;BME280;67727;50.236;22.452;2024-01-11T07:24:47;100293.66;;;-3.74;62.48
78431;BME280;67727;50.236;22.452;2024-01-11T07:27:14;100297.76;;;-3.69;61.76
78431;BME280;67727;50.236;22.452;2024-01-11T07:29:41;100296.55;;;-3.66;61.30
78431;BME280;67727;50.236;22.452;2024-01-11T07:32:08;100297.30;;;-3.63;61.49
78431;BME280;67727;50.236;22.452;2024-01-11T07:34:35;100297.99;;;-3.60;61.43
78431;BME280;67727;50.236;22.452;2024-01-11T07:37:03;100291.65;;;-3.57;61.53
78431;BME280;67727;50.236;22.452;2024-01-11T07:39:30;100286.41;;;-3.56;61.05
78431;BME280;67727;50.236;22.452;2024-01-11T07:41:57;100289.06;;;-3.53;61.24
78431;BME280;67727;50.236;22.452;2024-01-11T07:44:24;100287.00;;;-3.49;60.96
78431;BME280;67727;50.236;22.452;2024-01-11T07:46:51;100289.63;;;-3.47;60.79
78431;BME280;67727;50.236;22.452;2024-01-11T07:49:18;100286.86;;;-3.43;61.21
78431;BME280;67727;50.236;22.452;2024-01-11T07:51:45;100271.28;;;-3.39;61.46
78431;BME280;67727;50.236;22.452;2024-01-11T07:54:12;100262.80;;;-3.35;61.16
78431;BME280;67727;50.236;22.452;2024-01-11T07:56:39;100253.98;;;-3.32;60.67
78431;BME280;67727;50.236;22.452;2024-01-11T07:59:06;100244.73;;;-3.29;61.24
78431;BME280;67727;50.236;22.452;2024-01-11T08:01:33;100245.55;;;-3.25;61.31
78431;BME280;67727;50.236;22.452;2024-01-11T08:04:01;100240.64;;;-3.20;61.06
78431;BME280;67727;50.236;22.452;2024-01-11T08:06:29;100235.88;;;-3.15;60.51
78431;BME280;67727;50.236;22.452;2024-01-11T08:08:56;100229.05;;;-3.10;60.08
78431;BME280;67727;50.236;22.452;2024-01-11T08:11:23;100227.38;;;-3.04;59.84
78431;BME280;67727;50.236;22.452;2024-01-11T08:13:50;100220.55;;;-2.99;59.74
78431;BME280;67727;50.236;22.452;2024-01-11T08:16:17;100220.60;;;-2.93;60.10
78431;BME280;67727;50.236;22.452;2024-01-11T08:18:47;100219.37;;;-2.86;60.26
78431;BME280;67727;50.236;22.452;2024-01-11T08:21:15;100213.45;;;-2.78;60.07
78431;BME280;67727;50.236;22.452;2024-01-11T08:23:42;100209.38;;;-2.70;60.04
78431;BME280;67727;50.236;22.452;2024-01-11T08:26:15;100202.01;;;-2.61;59.58
78431;BME280;67727;50.236;22.452;2024-01-11T08:28:45;100192.88;;;-2.55;58.84
78431;BME280;67727;50.236;22.452;2024-01-11T08:31:12;100186.56;;;-2.47;59.27
78431;BME280;67727;50.236;22.452;2024-01-11T08:33:39;100168.31;;;-2.39;58.92
78431;BME280;67727;50.236;22.452;2024-01-11T08:36:06;100183.64;;;-2.32;58.59
78431;BME280;67727;50.236;22.452;2024-01-11T08:38:33;100181.66;;;-2.24;58.96
78431;BME280;67727;50.236;22.452;2024-01-11T08:41:00;100189.84;;;-2.15;58.12
78431;BME280;67727;50.236;22.452;2024-01-11T08:43:28;100203.30;;;-2.11;57.05
78431;BME280;67727;50.236;22.452;2024-01-11T08:45:55;100204.57;;;-2.09;57.65
78431;BME280;67727;50.236;22.452;2024-01-11T08:48:21;100207.18;;;-2.03;57.34
78431;BME280;67727;50.236;22.452;2024-01-11T08:50:48;100202.59;;;-1.98;57.50
78431;BME280;67727;50.236;22.452;2024-01-11T08:53:15;100198.17;;;-1.94;57.54
78431;BME280;67727;50.236;22.452;2024-01-11T08:55:42;100195.86;;;-1.93;57.11
78431;BME280;67727;50.236;22.452;2024-01-11T08:58:09;100193.40;;;-1.95;56.71
78431;BME280;67727;50.236;22.452;2024-01-11T09:00:37;100191.13;;;-1.98;56.58
78431;BME280;67727;50.236;22.452;2024-01-11T09:03:04;100192.98;;;-2.00;56.59
78431;BME280;67727;50.236;22.452;2024-01-11T09:05:31;100190.81;;;-2.04;56.74
78431;BME280;67727;50.236;22.452;2024-01-11T09:07:58;100195.73;;;-2.06;56.54
78431;BME280;67727;50.236;22.452;2024-01-11T09:10:26;100206.06;;;-2.08;56.25
78431;BME280;67727;50.236;22.452;2024-01-11T09:12:54;100211.93;;;-2.10;56.51
78431;BME280;67727;50.236;22.452;2024-01-11T09:15:21;100215.94;;;-2.08;57.26
78431;BME280;67727;50.236;22.452;2024-01-11T09:17:48;100216.14;;;-2.02;57.15
78431;BME280;67727;50.236;22.452;2024-01-11T09:20:16;100212.12;;;-1.96;56.62
78431;BME280;67727;50.236;22.452;2024-01-11T09:22:43;100215.75;;;-1.92;55.76
78431;BME280;67727;50.236;22.452;2024-01-11T09:25:12;100217.58;;;-1.87;55.92
78431;BME280;67727;50.236;22.452;2024-01-11T09:27:39;100220.02;;;-1.81;56.55
78431;BME280;67727;50.236;22.452;2024-01-11T09:30:06;100219.66;;;-1.75;56.04
78431;BME280;67727;50.236;22.452;2024-01-11T09:32:33;100209.01;;;-1.70;56.09
78431;BME280;67727;50.236;22.452;2024-01-11T09:35:02;100210.02;;;-1.70;55.67
78431;BME280;67727;50.236;22.452;2024-01-11T09:37:31;100199.55;;;-1.72;55.71
78431;BME280;67727;50.236;22.452;2024-01-11T09:39:58;100201.05;;;-1.74;55.29
78431;BME280;67727;50.236;22.452;2024-01-11T09:42:27;100207.77;;;-1.76;55.27
78431;BME280;67727;50.236;22.452;2024-01-11T09:44:56;100219.23;;;-1.77;55.08
78431;BME280;67727;50.236;22.452;2024-01-11T09:47:24;100228.09;;;-1.83;54.58
78431;BME280;67727;50.236;22.452;2024-01-11T09:49:53;100225.63;;;-1.86;55.16
78431;BME280;67727;50.236;22.452;2024-01-11T09:52:22;100230.50;;;-1.86;55.23
78431;BME280;67727;50.236;22.452;2024-01-11T09:54:52;100222.21;;;-1.77;56.02
78431;BME280;67727;50.236;22.452;2024-01-11T09:57:24;100220.24;;;-1.67;55.61
78431;BME280;67727;50.236;22.452;2024-01-11T09:59:54;100221.36;;;-1.59;55.32
78431;BME280;67727;50.236;22.452;2024-01-11T10:02:26;100221.08;;;-1.57;55.52
78431;BME280;67727;50.236;22.452;2024-01-11T10:04:55;100220.05;;;-1.57;55.43
78431;BME280;67727;50.236;22.452;2024-01-11T10:07:23;100217.87;;;-1.61;55.53
78431;BME280;67727;50.236;22.452;2024-01-11T10:09:51;100216.59;;;-1.63;56.06
78431;BME280;67727;50.236;22.452;2024-01-11T10:12:18;100210.22;;;-1.64;55.89
78431;BME280;67727;50.236;22.452;2024-01-11T10:14:47;100207.83;;;-1.65;56.01
78431;BME280;67727;50.236;22.452;2024-01-11T10:17:14;100219.34;;;-1.63;56.54
78431;BME280;67727;50.236;22.452;2024-01-11T10:19:41;100213.58;;;-1.62;56.79
78431;BME280;67727;50.236;22.452;2024-01-11T10:22:09;100220.98;;;-1.64;57.14
78431;BME280;67727;50.236;22.452;2024-01-11T10:24:39;100216.79;;;-1.67;57.10
78431;BME280;67727;50.236;22.452;2024-01-11T10:27:08;100216.52;;;-1.75;56.98
78431;BME280;67727;50.236;22.452;2024-01-11T10:29:36;100211.73;;;-1.82;57.04
78431;BME280;67727;50.236;22.452;2024-01-11T10:32:04;100208.13;;;-1.92;57.04
78431;BME280;67727;50.236;22.452;2024-01-11T10:34:31;100208.10;;;-1.95;57.95
78431;BME280;67727;50.236;22.452;2024-01-11T10:36:59;100207.57;;;-1.95;57.48
78431;BME280;67727;50.236;22.452;2024-01-11T10:39:26;100205.77;;;-1.93;57.81
78431;BME280;67727;50.236;22.452;2024-01-11T10:42:04;100208.02;;;-1.90;58.28
78431;BME280;67727;50.236;22.452;2024-01-11T10:44:33;100210.11;;;-1.84;58.51
78431;BME280;67727;50.236;22.452;2024-01-11T10:47:03;100201.93;;;-1.80;58.24
78431;BME280;67727;50.236;22.452;2024-01-11T10:49:32;100199.95;;;-1.82;57.79
78431;BME280;67727;50.236;22.452;2024-01-11T10:52:03;100200.56;;;-1.86;58.26
78431;BME280;67727;50.236;22.452;2024-01-11T10:54:36;100193.74;;;-1.92;58.34
78431;BME280;67727;50.236;22.452;2024-01-11T10:57:04;100183.27;;;-1.97;58.71
78431;BME280;67727;50.236;22.452;2024-01-11T10:59:32;100168.67;;;-2.02;58.73
78431;BME280;67727;50.236;22.452;2024-01-11T11:02:04;100168.83;;;-2.08;58.76
78431;BME280;67727;50.236;22.452;2024-01-11T11:04:40;100166.27;;;-2.14;58.93
78431;BME280;67727;50.236;22.452;2024-01-11T11:07:09;100168.49;;;-2.20;59.22
78431;BME280;67727;50.236;22.452;2024-01-11T11:09:37;100158.20;;;-2.25;59.47
78431;BME280;67727;50.236;22.452;2024-01-11T11:12:06;100145.83;;;-2.27;59.67
78431;BME280;67727;50.236;22.452;2024-01-11T11:14:34;100142.04;;;-2.30;59.57
78431;BME280;67727;50.236;22.452;2024-01-11T11:17:01;100133.77;;;-2.37;59.98
78431;BME280;67727;50.236;22.452;2024-01-11T11:19:29;100132.80;;;-2.41;60.27
78431;BME280;67727;50.236;22.452;2024-01-11T11:21:57;100127.55;;;-2.43;60.73
78431;BME280;67727;50.236;22.452;2024-01-11T11:24:24;100126.02;;;-2.44;61.12
78431;BME280;67727;50.236;22.452;2024-01-11T11:26:51;100122.11;;;-2.46;60.81
78431;BME280;67727;50.236;22.452;2024-01-11T11:29:19;100114.41;;;-2.50;60.77
78431;BME280;67727;50.236;22.452;2024-01-11T11:31:47;100114.05;;;-2.53;60.50
78431;BME280;67727;50.236;22.452;2024-01-11T11:34:14;100111.68;;;-2.58;60.64
78431;BME280;67727;50.236;22.452;2024-01-11T11:36:41;100108.48;;;-2.62;60.36
78431;BME280;67727;50.236;22.452;2024-01-11T11:39:13;100104.77;;;-2.67;60.44
78431;BME280;67727;50.236;22.452;2024-01-11T11:41:41;100104.06;;;-2.70;60.71
78431;BME280;67727;50.236;22.452;2024-01-11T11:44:11;100099.55;;;-2.73;61.11
78431;BME280;67727;50.236;22.452;2024-01-11T11:46:40;100089.08;;;-2.75;61.46
78431;BME280;67727;50.236;22.452;2024-01-11T11:49:07;100080.65;;;-2.75;61.38
78431;BME280;67727;50.236;22.452;2024-01-11T11:51:34;100075.49;;;-2.76;61.28
78431;BME280;67727;50.236;22.452;2024-01-11T11:54:02;100070.35;;;-2.77;61.61
78431;BME280;67727;50.236;22.452;2024-01-11T11:56:30;100071.50;;;-2.73;61.84
78431;BME280;67727;50.236;22.452;2024-01-11T11:58:57;100069.70;;;-2.68;61.73
78431;BME280;67727;50.236;22.452;2024-01-11T12:01:25;100070.52;;;-2.64;61.80
78431;BME280;67727;50.236;22.452;2024-01-11T12:03:52;100064.05;;;-2.60;61.63
78431;BME280;67727;50.236;22.452;2024-01-11T12:06:20;100060.65;;;-2.58;61.43
78431;BME280;67727;50.236;22.452;2024-01-11T12:08:52;100050.68;;;-2.56;61.71
78431;BME280;67727;50.236;22.452;2024-01-11T12:11:21;100047.17;;;-2.52;61.69
78431;BME280;67727;50.236;22.452;2024-01-11T12:13:49;100045.63;;;-2.49;61.66
78431;BME280;67727;50.236;22.452;2024-01-11T12:16:16;100037.84;;;-2.46;62.14
78431;BME280;67727;50.236;22.452;2024-01-11T12:18:44;100038.95;;;-2.40;62.27
78431;BME280;67727;50.236;22.452;2024-01-11T12:21:11;100038.88;;;-2.36;62.55
78431;BME280;67727;50.236;22.452;2024-01-11T12:23:39;100032.64;;;-2.30;62.88
78431;BME280;67727;50.236;22.452;2024-01-11T12:26:07;100033.48;;;-2.26;63.05
78431;BME280;67727;50.236;22.452;2024-01-11T12:28:41;100029.73;;;-2.25;63.43
78431;BME280;67727;50.236;22.452;2024-01-11T12:31:09;100035.39;;;-2.27;63.73
78431;BME280;67727;50.236;22.452;2024-01-11T12:33:36;100031.80;;;-2.31;63.81
78431;BME280;67727;50.236;22.452;2024-01-11T12:36:06;100031.94;;;-2.35;64.48
78431;BME280;67727;50.236;22.452;2024-01-11T12:38:35;100032.57;;;-2.38;65.27
78431;BME280;67727;50.236;22.452;2024-01-11T12:41:01;100037.64;;;-2.42;66.07